Portada
METAR-TAF:

METAR-TAF

Aeropuertos :

Angoon, Alaska, Estados Unidos

latitud: 57-30N, longitud: 134-35W, altitud: 0 m

Observación

El informe se hizo hace 54 minutos, a las 21:56 UTC
Viento 9 kt del norte-noreste
Temperatura -3°C
Humedad 74%
Presión 1008 hPa
Visibilidad: 16.1 km
Cielo cubierto a una altura de 4000 ft

METAR: PAGN 202156Z AUTO 03009KT 10SM OVC040 M03/M07 A2978 RMK AO2 SNE2057 SLP074 T10281067 FZRANO

Hora: 13:50 (22:50 UTC)


TAF: falta

Observaciones y pronósticos meteorológicos de más de 4000 aeropuertos (mensajes METAR y TAF).

Los puntos amarillos y rojos representan las estaciones disponibles.

Ponga el ratón en el punto deseado para ver el nombre de la estación.

Haga clic para ver las observaciones y los pronósticos meteorológicos.

Para cambiar el mapa : haga clic en los botones verdes con una cruz de color negro para hacer un zoom, en el botón verde con un guión para alejar o en las flechas verdes para mapas adyacentes.


METAR-TAF: